Time;durP1;ratioP1;P1;durP2;ratioP2;P2;SDS_P1;SDS_P2;PMS_P1;PMS_P2;Temp;Humidity;BMP_temperature;BMP_pressure;BME280_temperature;BME280_humidity;BME280_pressure;Samples;Min_cycle;Max_cycle;Signal;HPM_P1;HPM_P2
2022/08/31 00:04:01;;;;;;;;;;;25.80;44.10;;;;;;8439707;28;20295;-41
2022/08/31 00:08:02;;;;;;;;;;;25.80;44.10;;;;;;8435530;28;20430;-41
2022/08/31 00:12:02;;;;;;;;;;;25.80;44.20;;;;;;8434779;28;19924;-41
2022/08/31 00:16:03;;;;;;;;;;;25.80;44.20;;;;;;8435289;28;19931;-42
2022/08/31 00:20:05;;;;;;;;;;;25.70;44.10;;;;;;8435063;28;19920;-41
2022/08/31 00:24:05;;;;;;;;;;;25.70;44.20;;;;;;8434393;28;19923;-41
2022/08/31 00:28:06;;;;;;;;;;;25.70;44.20;;;;;;8434734;28;20364;-41
2022/08/31 00:32:07;;;;;;;;;;;25.70;44.20;;;;;;8434547;28;19924;-41
2022/08/31 00:36:10;;;;;;;;;;;25.70;44.20;;;;;;8434470;28;20011;-42
2022/08/31 00:40:11;;;;;;;;;;;25.70;44.20;;;;;;8434418;28;19920;-41
2022/08/31 00:44:11;;;;;;;;;;;25.70;44.20;;;;;;8433869;28;19916;-41
2022/08/31 00:48:12;;;;;;;;;;;25.70;44.20;;;;;;8434079;28;19958;-41
2022/08/31 00:52:14;;;;;;;;;;;25.70;44.20;;;;;;8434240;28;19928;-41
2022/08/31 00:56:15;;;;;;;;;;;25.70;44.20;;;;;;8433767;28;19923;-41
2022/08/31 01:00:17;;;;;;;;;;;25.70;44.30;;;;;;8433626;28;20008;-41
2022/08/31 01:04:18;;;;;;;;;;;25.70;44.20;;;;;;8433709;28;20283;-42
2022/08/31 01:08:18;;;;;;;;;;;25.70;44.30;;;;;;8433177;28;19923;-42
2022/08/31 01:12:19;;;;;;;;;;;25.70;44.30;;;;;;8432677;28;20014;-42
2022/08/31 01:16:33;;;;;;;;;;;25.70;44.30;;;;;;8433406;28;19924;-42
2022/08/31 01:20:45;;;;;;;;;;;25.60;44.20;;;;;;8432853;28;20390;-42
2022/08/31 01:24:47;;;;;;;;;;;25.60;44.20;;;;;;8425259;28;20375;-42
2022/08/31 01:28:48;;;;;;;;;;;25.70;44.30;;;;;;8432934;28;20357;-41
2022/08/31 01:32:48;;;;;;;;;;;25.60;44.30;;;;;;8414166;28;19931;-42
2022/08/31 01:36:50;;;;;;;;;;;25.60;44.30;;;;;;8432830;28;19920;-41
2022/08/31 01:40:52;;;;;;;;;;;25.60;44.30;;;;;;8432586;28;19966;-41
2022/08/31 01:44:52;;;;;;;;;;;25.60;44.30;;;;;;8431784;28;19985;-41
2022/08/31 01:48:53;;;;;;;;;;;25.60;44.30;;;;;;8432160;28;20285;-42
2022/08/31 01:52:53;;;;;;;;;;;25.60;44.30;;;;;;8431929;28;20018;-41
2022/08/31 01:56:54;;;;;;;;;;;25.60;44.30;;;;;;8431717;28;19916;-41
2022/08/31 02:00:55;;;;;;;;;;;25.60;44.30;;;;;;8432161;28;20326;-41
2022/08/31 02:04:55;;;;;;;;;;;25.60;44.40;;;;;;8431693;28;19993;-41
2022/08/31 02:08:56;;;;;;;;;;;25.60;44.40;;;;;;8430841;28;20331;-43
2022/08/31 02:12:56;;;;;;;;;;;25.60;44.40;;;;;;8431296;28;19920;-41
2022/08/31 02:16:57;;;;;;;;;;;25.60;44.40;;;;;;8431397;28;19965;-43
2022/08/31 02:20:57;;;;;;;;;;;25.60;44.40;;;;;;8430721;28;19923;-41
2022/08/31 02:24:58;;;;;;;;;;;25.60;44.40;;;;;;8431007;28;19916;-42
2022/08/31 02:28:58;;;;;;;;;;;25.60;44.40;;;;;;8430994;28;20373;-41
2022/08/31 02:32:59;;;;;;;;;;;25.50;44.40;;;;;;8430171;28;19924;-41
2022/08/31 02:36:59;;;;;;;;;;;25.50;44.40;;;;;;8430942;28;19916;-41
2022/08/31 02:41:00;;;;;;;;;;;25.50;44.40;;;;;;8430726;28;19916;-41
2022/08/31 02:45:00;;;;;;;;;;;25.50;44.50;;;;;;8430095;28;19916;-41
2022/08/31 02:49:01;;;;;;;;;;;25.50;44.40;;;;;;8430483;28;19950;-42
2022/08/31 02:53:01;;;;;;;;;;;25.50;44.50;;;;;;8430626;28;19924;-41
2022/08/31 02:57:02;;;;;;;;;;;25.50;44.50;;;;;;8429780;28;20364;-42
2022/08/31 03:01:02;;;;;;;;;;;25.50;44.50;;;;;;8430211;28;20007;-41
2022/08/31 03:05:06;;;;;;;;;;;25.50;44.50;;;;;;8429897;28;19912;-43
2022/08/31 03:09:07;;;;;;;;;;;25.50;44.50;;;;;;8429357;28;19916;-41
2022/08/31 03:13:07;;;;;;;;;;;25.50;44.50;;;;;;8430053;28;19959;-42
2022/08/31 03:17:08;;;;;;;;;;;25.50;44.50;;;;;;8428141;28;19920;-43
2022/08/31 03:21:08;;;;;;;;;;;25.50;44.50;;;;;;8427150;28;19916;-44
2022/08/31 03:25:09;;;;;;;;;;;25.50;44.50;;;;;;8428345;28;19912;-42
2022/08/31 03:29:09;;;;;;;;;;;25.50;44.50;;;;;;8427821;28;20287;-42
2022/08/31 03:33:10;;;;;;;;;;;25.50;44.60;;;;;;8428256;28;19958;-42
2022/08/31 03:37:10;;;;;;;;;;;25.40;44.50;;;;;;8428084;28;19961;-43
2022/08/31 03:41:13;;;;;;;;;;;25.40;44.50;;;;;;8427697;28;19920;-42
2022/08/31 03:45:14;;;;;;;;;;;25.50;44.60;;;;;;8427718;28;19923;-43
2022/08/31 03:49:17;;;;;;;;;;;25.40;44.50;;;;;;8427930;28;19912;-42
2022/08/31 03:53:17;;;;;;;;;;;25.40;44.50;;;;;;8427505;28;19970;-42
2022/08/31 03:57:18;;;;;;;;;;;25.40;44.60;;;;;;8427774;28;19916;-43
2022/08/31 04:01:18;;;;;;;;;;;25.40;44.60;;;;;;8427576;28;19916;-42
2022/08/31 04:05:20;;;;;;;;;;;25.40;44.60;;;;;;8427133;28;19951;-42
2022/08/31 04:09:20;;;;;;;;;;;25.40;44.60;;;;;;8427688;28;19912;-42
2022/08/31 04:13:22;;;;;;;;;;;25.40;44.60;;;;;;8397158;28;19928;-43
2022/08/31 04:17:22;;;;;;;;;;;25.40;44.60;;;;;;8364255;28;1729849;-42
2022/08/31 04:21:24;;;;;;;;;;;25.40;44.60;;;;;;8428757;28;19986;-42
2022/08/31 04:25:25;;;;;;;;;;;25.40;44.60;;;;;;8428659;28;19912;-42
2022/08/31 04:29:25;;;;;;;;;;;25.40;44.70;;;;;;8428129;28;19916;-42
2022/08/31 04:33:25;;;;;;;;;;;25.40;44.70;;;;;;8431321;28;19924;-42
2022/08/31 04:37:26;;;;;;;;;;;25.40;44.70;;;;;;8434554;28;20383;-42
2022/08/31 04:41:28;;;;;;;;;;;25.40;44.70;;;;;;8433997;28;19924;-42
2022/08/31 04:45:28;;;;;;;;;;;25.30;44.60;;;;;;8434468;28;19969;-42
2022/08/31 04:49:28;;;;;;;;;;;25.40;44.70;;;;;;8434398;28;19913;-42
2022/08/31 04:53:29;;;;;;;;;;;25.30;45.20;;;;;;8433777;28;20018;-42
2022/08/31 04:57:32;;;;;;;;;;;25.40;44.70;;;;;;8433872;28;19916;-42
2022/08/31 05:01:34;;;;;;;;;;;25.30;44.70;;;;;;8433883;28;19922;-42
2022/08/31 05:05:38;;;;;;;;;;;25.30;44.70;;;;;;8433246;28;19924;-42
2022/08/31 05:09:39;;;;;;;;;;;25.30;44.70;;;;;;8433683;28;19916;-43
2022/08/31 05:13:40;;;;;;;;;;;25.30;44.70;;;;;;8433571;28;20472;-42
2022/08/31 05:17:40;;;;;;;;;;;25.30;44.70;;;;;;8432753;28;19920;-42
2022/08/31 05:21:42;;;;;;;;;;;25.30;44.80;;;;;;8433361;28;20015;-42
2022/08/31 05:25:43;;;;;;;;;;;25.30;44.70;;;;;;8433064;28;20003;-43
2022/08/31 05:29:43;;;;;;;;;;;25.30;44.80;;;;;;8423983;28;19952;-42
2022/08/31 05:33:44;;;;;;;;;;;25.30;44.80;;;;;;8424558;28;19921;-42
2022/08/31 05:37:44;;;;;;;;;;;25.30;44.80;;;;;;8432724;28;20296;-43
2022/08/31 05:41:45;;;;;;;;;;;25.30;44.80;;;;;;8432145;28;19919;-42
2022/08/31 05:45:46;;;;;;;;;;;25.30;44.80;;;;;;8431183;28;19919;-43
2022/08/31 05:49:46;;;;;;;;;;;25.30;44.80;;;;;;8431944;28;19920;-42
2022/08/31 05:53:47;;;;;;;;;;;25.30;44.80;;;;;;8431463;28;19920;-42
2022/08/31 05:57:47;;;;;;;;;;;25.20;44.80;;;;;;8431903;28;20389;-42
2022/08/31 06:01:48;;;;;;;;;;;25.20;44.80;;;;;;8431759;28;19920;-42
2022/08/31 06:05:51;;;;;;;;;;;25.30;44.80;;;;;;8431287;28;19916;-42
2022/08/31 06:09:52;;;;;;;;;;;25.20;44.80;;;;;;8431503;28;19912;-43
2022/08/31 06:13:54;;;;;;;;;;;25.20;44.80;;;;;;8431639;28;20034;-42
2022/08/31 06:17:54;;;;;;;;;;;25.20;44.90;;;;;;8430676;28;19920;-42
2022/08/31 06:21:56;;;;;;;;;;;25.20;45.40;;;;;;8431198;28;19916;-42
2022/08/31 06:26:00;;;;;;;;;;;25.20;44.90;;;;;;8431247;28;19973;-44
2022/08/31 06:30:01;;;;;;;;;;;25.20;44.90;;;;;;8430650;28;19951;-41
2022/08/31 06:34:02;;;;;;;;;;;25.20;44.90;;;;;;8431025;28;19943;-41
2022/08/31 06:38:02;;;;;;;;;;;25.20;44.90;;;;;;8431192;28;19916;-42
2022/08/31 06:42:03;;;;;;;;;;;25.20;44.90;;;;;;8430308;28;20272;-41
2022/08/31 06:46:04;;;;;;;;;;;25.20;44.90;;;;;;8430543;28;19920;-42
2022/08/31 06:50:04;;;;;;;;;;;25.20;44.90;;;;;;8430596;28;19920;-41
2022/08/31 06:54:06;;;;;;;;;;;25.20;44.90;;;;;;8430001;28;20407;-41
2022/08/31 06:58:07;;;;;;;;;;;25.20;44.90;;;;;;8430247;28;19954;-41
2022/08/31 07:02:07;;;;;;;;;;;25.20;44.90;;;;;;8430168;28;20369;-41
2022/08/31 07:06:09;;;;;;;;;;;25.20;44.90;;;;;;8428904;28;19916;-41
2022/08/31 07:10:10;;;;;;;;;;;25.20;44.90;;;;;;8430098;28;19924;-41
2022/08/31 07:14:12;;;;;;;;;;;25.20;44.90;;;;;;8429509;28;19931;-41
2022/08/31 07:18:12;;;;;;;;;;;25.20;44.90;;;;;;8429686;28;20210;-41
2022/08/31 07:22:13;;;;;;;;;;;25.20;44.90;;;;;;8429439;28;19948;-41
2022/08/31 07:26:15;;;;;;;;;;;25.20;44.80;;;;;;8429128;28;19920;-43
2022/08/31 07:30:15;;;;;;;;;;;25.20;44.80;;;;;;8429457;28;19995;-41
2022/08/31 07:34:16;;;;;;;;;;;25.20;44.80;;;;;;8429919;28;19924;-41
2022/08/31 07:42:37;;;;;;;;;;;25.20;44.80;;;;;;8434775;28;19922;-42
2022/08/31 07:46:38;;;;;;;;;;;25.20;44.80;;;;;;8429380;28;19916;-42
2022/08/31 07:50:43;;;;;;;;;;;25.20;44.80;;;;;;8428973;28;19939;-41
2022/08/31 07:54:45;;;;;;;;;;;25.20;44.80;;;;;;8429446;28;19986;-41
2022/08/31 07:58:48;;;;;;;;;;;25.20;44.80;;;;;;8429224;28;19962;-41
2022/08/31 08:02:50;;;;;;;;;;;25.20;44.80;;;;;;8428728;28;19958;-41
2022/08/31 08:06:54;;;;;;;;;;;25.20;44.80;;;;;;8429464;28;19916;-42
2022/08/31 08:10:55;;;;;;;;;;;25.20;44.80;;;;;;8435419;28;19916;-41
2022/08/31 08:14:56;;;;;;;;;;;25.20;44.70;;;;;;8435061;28;20358;-42
2022/08/31 08:18:57;;;;;;;;;;;25.20;44.80;;;;;;8435475;28;19961;-43
2022/08/31 08:22:57;;;;;;;;;;;25.20;44.80;;;;;;8435074;28;20425;-41
2022/08/31 08:26:58;;;;;;;;;;;25.20;44.80;;;;;;8434457;28;19955;-41
2022/08/31 08:31:00;;;;;;;;;;;25.20;44.80;;;;;;8434853;28;20296;-41
2022/08/31 08:35:00;;;;;;;;;;;25.20;44.80;;;;;;8434977;28;19916;-41
2022/08/31 08:39:03;;;;;;;;;;;25.20;44.80;;;;;;8434164;28;19927;-42
2022/08/31 08:43:03;;;;;;;;;;;25.10;44.70;;;;;;8434591;28;20288;-41
2022/08/31 08:47:06;;;;;;;;;;;25.10;44.70;;;;;;8434326;28;19917;-42
2022/08/31 08:51:14;;;;;;;;;;;25.20;44.80;;;;;;8433588;28;19923;-42
2022/08/31 08:55:22;;;;;;;;;;;25.20;44.80;;;;;;8433912;28;19912;-42
2022/08/31 08:59:23;;;;;;;;;;;25.20;44.80;;;;;;8433417;28;19916;-41
2022/08/31 09:03:32;;;;;;;;;;;25.20;44.80;;;;;;8433558;28;19916;-41
2022/08/31 09:07:32;;;;;;;;;;;25.20;44.80;;;;;;8433460;28;19912;-42
2022/08/31 09:11:51;;;;;;;;;;;25.20;44.80;;;;;;8432940;28;19924;-42
2022/08/31 09:15:52;;;;;;;;;;;25.20;44.80;;;;;;8433484;28;20011;-42
2022/08/31 09:20:02;;;;;;;;;;;25.20;45.30;;;;;;8433359;28;20372;-42
2022/08/31 09:24:05;;;;;;;;;;;25.20;44.80;;;;;;8432683;28;19985;-42
2022/08/31 09:28:06;;;;;;;;;;;25.20;44.80;;;;;;8433270;28;19982;-42
2022/08/31 09:32:08;;;;;;;;;;;25.20;44.80;;;;;;8432800;28;19942;-42
2022/08/31 09:36:17;;;;;;;;;;;25.20;44.80;;;;;;8432444;28;19923;-42
2022/08/31 09:40:19;;;;;;;;;;;25.20;44.80;;;;;;8432840;28;19912;-41
2022/08/31 09:44:29;;;;;;;;;;;25.20;44.80;;;;;;8431946;28;19946;-42
2022/08/31 09:48:57;;;;;;;;;;;25.20;44.80;;;;;;8432618;28;19916;-41
2022/08/31 09:57:42;;;;;;;;;;;25.20;44.80;;;;;;8431831;28;19923;-41
2022/08/31 10:01:43;;;;;;;;;;;25.20;44.80;;;;;;8432051;28;20268;-42
2022/08/31 10:05:44;;;;;;;;;;;25.20;44.80;;;;;;8431715;28;19916;-42
2022/08/31 10:09:47;;;;;;;;;;;25.20;44.80;;;;;;8417229;28;19923;-43
2022/08/31 10:13:57;;;;;;;;;;;25.10;44.70;;;;;;8421178;28;20014;-42
2022/08/31 10:18:01;;;;;;;;;;;25.20;44.80;;;;;;8430939;28;20395;-42
2022/08/31 10:22:06;;;;;;;;;;;25.20;44.80;;;;;;8431427;28;20331;-42
2022/08/31 10:26:17;;;;;;;;;;;25.20;44.80;;;;;;8431609;28;19912;-42
2022/08/31 10:30:30;;;;;;;;;;;25.20;44.70;;;;;;8430618;28;20281;-41
2022/08/31 10:38:53;;;;;;;;;;;25.20;44.70;;;;;;8431014;28;19927;-41
2022/08/31 10:43:08;;;;;;;;;;;25.20;44.70;;;;;;8430864;28;20292;-41
2022/08/31 10:47:08;;;;;;;;;;;25.20;44.70;;;;;;8430128;28;20369;-41
2022/08/31 10:51:18;;;;;;;;;;;25.20;44.60;;;;;;8430931;28;20012;-41
2022/08/31 10:55:29;;;;;;;;;;;25.20;44.60;;;;;;8430750;28;19920;-42
2022/08/31 10:59:32;;;;;;;;;;;25.20;44.60;;;;;;8429825;28;19922;-42
2022/08/31 11:03:45;;;;;;;;;;;25.20;44.60;;;;;;8429861;28;19970;-42
2022/08/31 11:07:52;;;;;;;;;;;25.30;45.10;;;;;;8430017;28;19916;-41
2022/08/31 11:11:57;;;;;;;;;;;25.30;44.50;;;;;;8429378;28;19977;-41
2022/08/31 11:16:16;;;;;;;;;;;25.30;44.50;;;;;;8429868;28;19926;-41
2022/08/31 11:20:19;;;;;;;;;;;25.40;44.50;;;;;;8429441;28;19916;-41
2022/08/31 11:24:31;;;;;;;;;;;25.40;44.50;;;;;;8429670;28;20440;-41
2022/08/31 11:28:36;;;;;;;;;;;25.40;44.40;;;;;;8429668;28;19916;-42
2022/08/31 11:32:46;;;;;;;;;;;25.40;44.40;;;;;;8428915;28;19924;-41
2022/08/31 11:36:54;;;;;;;;;;;25.40;44.30;;;;;;8429434;28;19912;-42
2022/08/31 11:40:56;;;;;;;;;;;25.40;44.30;;;;;;8429576;28;19916;-42
2022/08/31 11:45:01;;;;;;;;;;;25.40;44.30;;;;;;8434352;28;19923;-42
2022/08/31 11:49:01;;;;;;;;;;;25.50;44.30;;;;;;8435839;28;20011;-42
2022/08/31 11:53:18;;;;;;;;;;;25.50;44.30;;;;;;8436100;28;19927;-42
2022/08/31 11:57:22;;;;;;;;;;;25.50;44.80;;;;;;8435578;28;19916;-41
2022/08/31 12:01:32;;;;;;;;;;;25.50;44.20;;;;;;8436268;28;19912;-41
2022/08/31 12:05:49;;;;;;;;;;;25.60;44.70;;;;;;8435456;28;19916;-42
2022/08/31 12:10:05;;;;;;;;;;;25.60;44.20;;;;;;8435464;28;19920;-42
2022/08/31 12:14:15;;;;;;;;;;;25.60;44.10;;;;;;8435277;28;19920;-41
2022/08/31 12:18:29;;;;;;;;;;;25.60;44.10;;;;;;8435011;28;19916;-41
2022/08/31 12:27:13;;;;;;;;;;;25.60;44.10;;;;;;8434838;28;19969;-41
2022/08/31 12:31:15;;;;;;;;;;;25.60;44.10;;;;;;8434981;28;20439;-41
2022/08/31 12:35:23;;;;;;;;;;;25.60;44.10;;;;;;8434375;28;19922;-41
2022/08/31 12:39:25;;;;;;;;;;;25.60;44.10;;;;;;8434443;28;19927;-41
2022/08/31 12:43:36;;;;;;;;;;;25.60;44.10;;;;;;8434283;28;19966;-41
2022/08/31 12:47:55;;;;;;;;;;;25.60;44.00;;;;;;8433952;28;20287;-41
2022/08/31 12:52:22;;;;;;;;;;;25.60;44.00;;;;;;8434290;28;19930;-41
2022/08/31 12:56:25;;;;;;;;;;;25.60;44.00;;;;;;8433289;28;19923;-42
2022/08/31 13:00:27;;;;;;;;;;;25.60;44.00;;;;;;8433869;28;20325;-41
2022/08/31 13:04:28;;;;;;;;;;;25.60;44.00;;;;;;8433885;28;19920;-41
2022/08/31 13:08:32;;;;;;;;;;;25.60;44.00;;;;;;8415147;28;19989;-41
2022/08/31 13:12:33;;;;;;;;;;;25.60;44.10;;;;;;8432632;28;19920;-41
2022/08/31 13:16:37;;;;;;;;;;;25.60;44.00;;;;;;8433480;28;20391;-41
2022/08/31 13:20:45;;;;;;;;;;;25.60;44.10;;;;;;8432779;28;19995;-41
2022/08/31 13:24:45;;;;;;;;;;;25.60;44.10;;;;;;8425244;28;19924;-41
2022/08/31 13:28:51;;;;;;;;;;;25.60;44.10;;;;;;8432997;28;20395;-43
2022/08/31 13:32:53;;;;;;;;;;;25.60;44.10;;;;;;8432437;28;19924;-41
2022/08/31 13:36:57;;;;;;;;;;;25.60;44.10;;;;;;8432907;28;20368;-41
2022/08/31 13:40:57;;;;;;;;;;;25.60;44.10;;;;;;8432862;28;19923;-41
2022/08/31 13:45:06;;;;;;;;;;;25.60;44.10;;;;;;8432129;28;19916;-41
2022/08/31 13:49:09;;;;;;;;;;;25.60;44.10;;;;;;8432823;28;19912;-42
2022/08/31 13:53:10;;;;;;;;;;;25.60;44.10;;;;;;8431978;28;19924;-41
2022/08/31 13:57:24;;;;;;;;;;;25.60;44.00;;;;;;8432382;28;19935;-41
2022/08/31 14:01:25;;;;;;;;;;;25.60;44.00;;;;;;8432315;28;20473;-41
2022/08/31 14:05:30;;;;;;;;;;;25.60;44.00;;;;;;8430295;28;19920;-41
2022/08/31 14:09:31;;;;;;;;;;;25.60;44.00;;;;;;8431497;28;19916;-41
2022/08/31 14:13:33;;;;;;;;;;;25.60;44.00;;;;;;8431489;28;19947;-41
2022/08/31 14:18:00;;;;;;;;;;;25.60;44.00;;;;;;8431122;28;19943;-41
2022/08/31 14:22:26;;;;;;;;;;;25.60;44.00;;;;;;8427414;28;19923;-41
2022/08/31 14:26:27;;;;;;;;;;;25.60;44.00;;;;;;8431232;28;20011;-41
2022/08/31 14:30:34;;;;;;;;;;;25.50;44.00;;;;;;8431211;28;19917;-41
2022/08/31 14:34:35;;;;;;;;;;;25.60;44.10;;;;;;8431411;28;19959;-41
2022/08/31 14:38:35;;;;;;;;;;;25.60;44.10;;;;;;8430318;28;19927;-41
2022/08/31 14:42:36;;;;;;;;;;;25.50;44.00;;;;;;8430946;28;19913;-41
2022/08/31 14:46:38;;;;;;;;;;;25.50;44.10;;;;;;8430726;28;19923;-41
2022/08/31 14:50:38;;;;;;;;;;;25.50;44.10;;;;;;8430091;28;20003;-41
2022/08/31 14:54:39;;;;;;;;;;;25.50;44.10;;;;;;8430344;28;20376;-41
2022/08/31 14:58:40;;;;;;;;;;;25.50;44.10;;;;;;8430328;28;20003;-41
2022/08/31 15:02:42;;;;;;;;;;;25.50;44.10;;;;;;8429905;28;19968;-41
2022/08/31 15:06:46;;;;;;;;;;;25.50;44.10;;;;;;8430134;28;19921;-42
2022/08/31 15:10:47;;;;;;;;;;;25.50;44.10;;;;;;8430008;28;19920;-41
2022/08/31 15:14:48;;;;;;;;;;;25.50;44.10;;;;;;8429271;28;19930;-41
2022/08/31 15:18:53;;;;;;;;;;;25.50;44.10;;;;;;8430233;28;19916;-41
2022/08/31 15:22:53;;;;;;;;;;;25.50;44.10;;;;;;8430274;28;20368;-41
2022/08/31 15:26:56;;;;;;;;;;;25.50;44.10;;;;;;8429262;28;19924;-41
2022/08/31 15:30:57;;;;;;;;;;;25.50;44.10;;;;;;8429828;28;19923;-41
2022/08/31 15:34:57;;;;;;;;;;;25.50;44.10;;;;;;8429544;28;19920;-41
2022/08/31 15:38:58;;;;;;;;;;;25.50;44.00;;;;;;8429085;28;19923;-41
2022/08/31 15:43:00;;;;;;;;;;;25.50;44.00;;;;;;8429669;28;20365;-41
2022/08/31 15:51:26;;;;;;;;;;;25.50;44.00;;;;;;8429042;28;19927;-40
2022/08/31 15:55:26;;;;;;;;;;;25.50;44.00;;;;;;8429404;28;19912;-40
2022/08/31 15:59:27;;;;;;;;;;;25.50;44.00;;;;;;8428744;28;19931;-41
2022/08/31 16:03:28;;;;;;;;;;;25.50;44.10;;;;;;8429405;28;19919;-41
2022/08/31 16:07:29;;;;;;;;;;;25.50;44.00;;;;;;8429361;28;19916;-41
2022/08/31 16:11:32;;;;;;;;;;;25.50;44.00;;;;;;8427346;28;19924;-41
2022/08/31 16:15:33;;;;;;;;;;;25.50;44.00;;;;;;8429138;28;19928;-41
2022/08/31 16:19:37;;;;;;;;;;;25.40;44.50;;;;;;8428943;28;19912;-41
2022/08/31 16:23:38;;;;;;;;;;;25.50;44.00;;;;;;8428408;28;20003;-42
2022/08/31 16:27:39;;;;;;;;;;;25.50;44.00;;;;;;8429551;28;19923;-42
2022/08/31 16:31:41;;;;;;;;;;;25.40;43.90;;;;;;8435003;28;20293;-41
2022/08/31 16:35:43;;;;;;;;;;;25.50;44.00;;;;;;8434862;28;20071;-41
2022/08/31 16:39:45;;;;;;;;;;;25.40;43.90;;;;;;8434685;28;19912;-42
2022/08/31 16:43:46;;;;;;;;;;;25.40;44.00;;;;;;8434589;28;19963;-42
2022/08/31 16:47:47;;;;;;;;;;;25.50;44.00;;;;;;8434206;28;19916;-42
2022/08/31 16:51:49;;;;;;;;;;;25.50;44.00;;;;;;8434131;28;19971;-41
2022/08/31 16:55:52;;;;;;;;;;;25.40;44.00;;;;;;8434340;28;19919;-42
2022/08/31 16:59:52;;;;;;;;;;;25.40;44.00;;;;;;8433482;28;19920;-42
2022/08/31 17:03:54;;;;;;;;;;;25.40;44.00;;;;;;8434139;28;19919;-41
2022/08/31 17:07:55;;;;;;;;;;;25.40;44.00;;;;;;8434074;28;19923;-41
2022/08/31 17:11:57;;;;;;;;;;;25.40;44.00;;;;;;8433129;28;19924;-41
2022/08/31 17:16:00;;;;;;;;;;;25.40;44.00;;;;;;8433704;28;19920;-41
2022/08/31 17:20:01;;;;;;;;;;;25.40;44.00;;;;;;8433512;28;19920;-41
2022/08/31 17:24:02;;;;;;;;;;;25.40;44.00;;;;;;8432741;28;20138;-41
2022/08/31 17:28:06;;;;;;;;;;;25.40;44.00;;;;;;8433699;28;19999;-41
2022/08/31 17:32:07;;;;;;;;;;;25.40;44.00;;;;;;8431633;28;19924;-41
2022/08/31 17:36:08;;;;;;;;;;;25.40;44.00;;;;;;8422529;28;19923;-41
2022/08/31 17:40:12;;;;;;;;;;;25.40;44.00;;;;;;8427080;28;19951;-41
2022/08/31 17:44:15;;;;;;;;;;;25.40;44.00;;;;;;8426538;28;19920;-41
2022/08/31 17:48:16;;;;;;;;;;;25.40;44.00;;;;;;8410407;28;19970;-42
2022/08/31 17:52:19;;;;;;;;;;;25.40;44.00;;;;;;8427343;28;19924;-42
2022/08/31 17:56:20;;;;;;;;;;;25.40;44.00;;;;;;8425086;28;20292;-41
2022/08/31 18:00:20;;;;;;;;;;;25.40;44.10;;;;;;8427777;28;19927;-41
2022/08/31 18:04:22;;;;;;;;;;;25.40;44.10;;;;;;8412290;28;20288;-42
2022/08/31 18:08:23;;;;;;;;;;;25.40;44.10;;;;;;8407232;28;19985;-42
2022/08/31 18:12:24;;;;;;;;;;;25.40;44.10;;;;;;8413202;28;20392;-41
2022/08/31 18:16:25;;;;;;;;;;;25.40;44.10;;;;;;8428491;28;19962;-42
2022/08/31 18:20:27;;;;;;;;;;;25.30;44.10;;;;;;8430889;28;19916;-42
2022/08/31 18:24:29;;;;;;;;;;;25.30;44.00;;;;;;8427293;28;19963;-41
2022/08/31 18:28:30;;;;;;;;;;;25.30;44.10;;;;;;8431261;28;19940;-41
2022/08/31 18:32:33;;;;;;;;;;;25.30;44.10;;;;;;8425975;28;20283;-41
2022/08/31 18:36:37;;;;;;;;;;;25.30;44.10;;;;;;8416260;28;19923;-41
2022/08/31 18:45:15;;;;;;;;;;;25.40;44.20;;;;;;8428244;28;20310;-41
2022/08/31 18:49:23;;;;;;;;;;;25.30;44.20;;;;;;8430770;28;19912;-41
2022/08/31 18:53:24;;;;;;;;;;;25.30;44.20;;;;;;8419423;28;19924;-41
2022/08/31 18:57:26;;;;;;;;;;;25.30;44.20;;;;;;8426615;28;19952;-42
2022/08/31 19:01:28;;;;;;;;;;;25.30;44.20;;;;;;8413938;28;20342;-42
2022/08/31 19:05:30;;;;;;;;;;;25.30;44.20;;;;;;8423731;28;20305;-41
2022/08/31 19:09:31;;;;;;;;;;;25.30;44.20;;;;;;8416159;28;20460;-41
2022/08/31 19:13:32;;;;;;;;;;;25.30;44.20;;;;;;8400968;28;20461;-42
2022/08/31 19:17:32;;;;;;;;;;;25.20;44.20;;;;;;8426974;28;19950;-41
2022/08/31 19:21:34;;;;;;;;;;;25.30;44.30;;;;;;8421610;28;19923;-41
2022/08/31 19:25:40;;;;;;;;;;;25.30;44.30;;;;;;8403120;28;19917;-41
2022/08/31 19:29:41;;;;;;;;;;;25.20;44.20;;;;;;8421789;28;20316;-41
2022/08/31 19:33:42;;;;;;;;;;;25.20;44.20;;;;;;8405003;28;19932;-41
2022/08/31 19:37:43;;;;;;;;;;;25.20;44.30;;;;;;8420786;28;19978;-41
2022/08/31 19:41:47;;;;;;;;;;;25.20;44.30;;;;;;8429105;28;20344;-42
2022/08/31 19:45:48;;;;;;;;;;;25.20;44.30;;;;;;8429570;28;19966;-42
2022/08/31 19:49:48;;;;;;;;;;;25.20;44.30;;;;;;8430219;28;19916;-41
2022/08/31 19:53:49;;;;;;;;;;;25.20;44.30;;;;;;8428929;28;19931;-41
2022/08/31 19:57:50;;;;;;;;;;;25.20;44.30;;;;;;8429649;28;19916;-41
2022/08/31 20:01:53;;;;;;;;;;;25.20;44.30;;;;;;8429125;28;20273;-41
2022/08/31 20:05:53;;;;;;;;;;;25.20;44.30;;;;;;8434037;28;19974;-41
2022/08/31 20:09:54;;;;;;;;;;;25.20;44.30;;;;;;8435750;28;19969;-41
2022/08/31 20:13:57;;;;;;;;;;;25.20;44.30;;;;;;8435511;28;19931;-41
2022/08/31 20:17:57;;;;;;;;;;;25.20;44.30;;;;;;8434685;28;20332;-41
2022/08/31 20:22:05;;;;;;;;;;;25.20;44.30;;;;;;8435284;28;19916;-41
2022/08/31 20:26:05;;;;;;;;;;;25.20;44.30;;;;;;8437808;28;20257;-41
2022/08/31 20:30:06;;;;;;;;;;;25.20;44.40;;;;;;8434794;28;19916;-42
2022/08/31 20:34:07;;;;;;;;;;;25.20;44.30;;;;;;8435055;28;19931;-41
2022/08/31 20:38:13;;;;;;;;;;;25.10;44.30;;;;;;8433707;28;19917;-42
2022/08/31 20:42:14;;;;;;;;;;;25.10;44.30;;;;;;8435021;28;19927;-42
2022/08/31 20:50:34;;;;;;;;;;;25.20;44.40;;;;;;8435586;28;19923;-42
2022/08/31 20:54:35;;;;;;;;;;;25.20;44.40;;;;;;8434440;28;20345;-41
2022/08/31 20:58:35;;;;;;;;;;;25.10;44.40;;;;;;8415840;28;19920;-41
2022/08/31 21:02:38;;;;;;;;;;;25.10;44.30;;;;;;8433567;28;20285;-42
2022/08/31 21:06:39;;;;;;;;;;;25.10;44.40;;;;;;8433820;28;20369;-42
2022/08/31 21:10:39;;;;;;;;;;;25.10;44.40;;;;;;8433905;28;19916;-42
2022/08/31 21:14:42;;;;;;;;;;;25.10;44.40;;;;;;8432917;28;19970;-41
2022/08/31 21:18:43;;;;;;;;;;;25.10;44.40;;;;;;8433968;28;19928;-42
2022/08/31 21:22:43;;;;;;;;;;;25.10;44.40;;;;;;8433431;28;19916;-42
2022/08/31 21:26:44;;;;;;;;;;;25.10;44.40;;;;;;8432929;28;20364;-41
2022/08/31 21:30:47;;;;;;;;;;;25.10;44.40;;;;;;8433464;28;20434;-42
2022/08/31 21:34:48;;;;;;;;;;;25.00;44.30;;;;;;8433051;28;19931;-42
2022/08/31 21:38:50;;;;;;;;;;;25.10;44.40;;;;;;8432438;28;19920;-41
2022/08/31 21:42:50;;;;;;;;;;;25.10;44.40;;;;;;8432860;28;20368;-42
2022/08/31 21:46:51;;;;;;;;;;;25.00;44.40;;;;;;8432601;28;20375;-41
2022/08/31 21:50:51;;;;;;;;;;;25.00;44.40;;;;;;8432124;28;19920;-41
2022/08/31 21:54:51;;;;;;;;;;;25.00;44.40;;;;;;8432834;28;20076;-41
2022/08/31 21:58:52;;;;;;;;;;;25.00;44.40;;;;;;8432224;28;20301;-42
2022/08/31 22:02:53;;;;;;;;;;;25.00;44.40;;;;;;8435674;28;19920;-41
2022/08/31 22:06:54;;;;;;;;;;;25.00;44.40;;;;;;8413875;28;19923;-41
2022/08/31 22:10:55;;;;;;;;;;;25.00;44.40;;;;;;8431031;28;19943;-41
2022/08/31 22:14:57;;;;;;;;;;;25.00;44.40;;;;;;8431307;28;19955;-41
2022/08/31 22:18:57;;;;;;;;;;;25.00;44.40;;;;;;8431621;28;19979;-41
2022/08/31 22:22:58;;;;;;;;;;;25.00;44.40;;;;;;8431640;28;19916;-42
2022/08/31 22:27:02;;;;;;;;;;;25.00;44.40;;;;;;8430230;28;19920;-41
2022/08/31 22:31:03;;;;;;;;;;;25.00;44.40;;;;;;8431194;28;19916;-41
2022/08/31 22:35:03;;;;;;;;;;;25.00;44.40;;;;;;8431249;28;20444;-41
2022/08/31 22:39:05;;;;;;;;;;;25.00;44.40;;;;;;8430566;28;20296;-41
2022/08/31 22:43:06;;;;;;;;;;;25.00;44.40;;;;;;8430999;28;20432;-41
2022/08/31 22:47:06;;;;;;;;;;;24.90;44.40;;;;;;8430832;28;19920;-41
2022/08/31 22:51:09;;;;;;;;;;;24.90;44.40;;;;;;8430257;28;19912;-41
2022/08/31 22:55:09;;;;;;;;;;;24.90;44.40;;;;;;8430913;28;19926;-41
2022/08/31 22:59:12;;;;;;;;;;;24.90;44.40;;;;;;8430531;28;19916;-41
2022/08/31 23:03:13;;;;;;;;;;;24.90;44.40;;;;;;8431033;28;19922;-41
2022/08/31 23:07:15;;;;;;;;;;;24.90;44.40;;;;;;8430492;28;19916;-41
2022/08/31 23:11:17;;;;;;;;;;;24.90;44.40;;;;;;8429662;28;19912;-41
2022/08/31 23:15:20;;;;;;;;;;;24.80;44.30;;;;;;8430098;28;19931;-41
2022/08/31 23:19:24;;;;;;;;;;;24.90;44.40;;;;;;8430092;28;19920;-42
2022/08/31 23:23:25;;;;;;;;;;;24.90;44.40;;;;;;8429516;28;19916;-41
2022/08/31 23:27:26;;;;;;;;;;;24.80;44.40;;;;;;8430003;28;19939;-41
2022/08/31 23:31:26;;;;;;;;;;;24.80;44.40;;;;;;8429971;28;19947;-41
2022/08/31 23:35:27;;;;;;;;;;;24.80;44.40;;;;;;8429401;28;19926;-41
2022/08/31 23:39:28;;;;;;;;;;;24.80;44.40;;;;;;8434455;28;19916;-41
2022/08/31 23:43:29;;;;;;;;;;;24.80;44.40;;;;;;8418420;28;19916;-41
2022/08/31 23:47:30;;;;;;;;;;;24.80;44.40;;;;;;8436064;28;19916;-41
2022/08/31 23:51:31;;;;;;;;;;;24.80;44.40;;;;;;8436534;28;19912;-41
2022/08/31 23:55:32;;;;;;;;;;;24.80;44.40;;;;;;8436655;28;20399;-41
2022/08/31 23:59:35;;;;;;;;;;;24.80;44.40;;;;;;8435605;28;19916;-41
